SILO ALERT LOG
| Silo ID | Alert Type | Alert Message | Silo Type | Points | Depth (mm) | Strength | Temperature (°C) | Humidity (%) | Height (mm) | Volume (㎥) | Weight (t) | Flag | Time |
|---|---|---|---|---|---|---|---|---|---|---|---|---|---|
| DJSAD17 | Humidity | 습도센서 측정값이 80% 초과 | 평 | 440 | 3134 | 4799 | 3.5 | 81.6 | 4445 | 442.628 | 279.83 | 0 | 2024-01-14 05:39:30.000 |
| DJHNR03 | Temperature | 온도센서 상태 이상 | 호퍼 | 0 | 15500 | 0 | -999 | -999 | -119 | 0 | 0 | 31 | 2024-01-14 05:39:24.000 |
| DJSSD12 | Temperature | 온도센서 상태 이상 | 호퍼 | 0 | 11350 | 0 | -999 | -999 | -120 | 0 | 0 | 31 | 2024-01-14 05:39:24.000 |
| DJHNR12 | Temperature | 온도센서 측정값이 0도 미만 | 호퍼 | 0 | 10500 | 0 | -2.8 | 77.6 | -120 | 0 | 0 | 31 | 2024-01-14 05:39:23.000 |
| DJDJD03 | Humidity | 습도센서 측정값이 80% 초과 | 평 | 52 | 4633 | 5023 | 1.7 | 82.7 | 3046 | 369.123 | 233.36 | 0 | 2024-01-14 04:39:39.000 |
| DJSAD03 | Humidity | 습도센서 측정값이 80% 초과 | 평 | 444 | 1697 | 6194 | 2.2 | 84.5 | 7082 | 293.178 | 185.347 | 0 | 2024-01-14 04:39:39.000 |
| DJSAD01 | Humidity | 습도센서 측정값이 80% 초과 | 평 | 410 | 1484 | 6614 | 0.8 | 86.1 | 7295 | 302.015 | 190.934 | 0 | 2024-01-14 04:39:39.000 |
| DJSAD02 | Humidity | 습도센서 측정값이 80% 초과 | 평 | 380 | 1132 | 4256 | 1.6 | 86.4 | 7647 | 316.579 | 200.141 | 11 | 2024-01-14 04:39:38.000 |
| DJHNR08 | Temperature | 온도센서 측정값이 0도 미만 | 평 | 372 | 5420 | 2245 | -0.5 | 66 | 2259 | 321.442 | 203.216 | 11 | 2024-01-14 04:39:36.000 |
| DJSAD11 | Humidity | 습도센서 측정값이 80% 초과 | 평 | 336 | 1656 | 3294 | 1.1 | 80.5 | 5923 | 842.901 | 532.882 | 11 | 2024-01-14 04:39:35.000 |
| DJSSD05 | Temperature | 온도센서 측정값이 0도 미만 | 평 | 842 | 2543 | 4892 | -45.4 | 43.7 | 5536 | 770.504 | 487.113 | 0 | 2024-01-14 04:39:34.000 |
| DJHNR01 | Humidity | 습도센서 측정값이 80% 초과 | 호퍼 | 471 | 4315 | 4899 | 4 | 99.9 | 11064 | 472.262 | 298.564 | 13 | 2024-01-14 04:39:33.000 |
| DJSSD01 | Humidity | 습도센서 측정값이 80% 초과 | 평 | 807 | 2575 | 4733 | 4.8 | 84.1 | 5504 | 766.123 | 484.343 | 0 | 2024-01-14 04:39:33.000 |
| DJSSD04 | Temperature | 온도센서 상태 이상 | 평 | 0 | 8200 | 0 | -999 | -999 | -120 | -16.702 | 0 | 31 | 2024-01-14 04:39:33.000 |
| DJSAD16 | Humidity | 습도센서 측정값이 80% 초과 | 평 | 94 | 6187 | 3433 | 4.2 | 80.4 | 1392 | 138.651 | 87.655 | 11 | 2024-01-14 04:39:33.000 |
| DJSAD08 | Humidity | 습도센서 측정값이 80% 초과 | 평 | 567 | 2322 | 4910 | 7 | 84 | 5257 | 748.064 | 472.926 | 12 | 2024-01-14 04:39:32.000 |
| DJHNR11 | Temperature | 온도센서 측정값이 0도 미만 | 호퍼 | 122 | 1931 | 3348 | -3.3 | 75.4 | 8448 | 128.272 | 81.093 | 11 | 2024-01-14 04:39:32.000 |
| DJSAD17 | Humidity | 습도센서 측정값이 80% 초과 | 평 | 440 | 3109 | 4828 | 3.6 | 81.6 | 4470 | 445.145 | 281.421 | 0 | 2024-01-14 04:39:31.000 |
| DJHNR14 | Temperature | 온도센서 측정값이 0도 미만 | 호퍼 | 36 | 3095 | 4495 | -3.9 | 74.3 | 7284 | 103.168 | 65.223 | 11 | 2024-01-14 04:39:31.000 |
| DJSSD11 | Temperature | 온도센서 측정값이 0도 미만 | 호퍼 | 450 | 7377 | 154 | -4.2 | 72 | 3852 | 29.166 | 15.895 | 0 | 2024-01-14 04:39:31.000 |
[첫 페이지] [9951] [9952] [9953] [9954] 9955 [9956] [9957] [9958] [9959] [마지막 페이지]